Time;durP1;ratioP1;P1;durP2;ratioP2;P2;SDS_P1;SDS_P2;PMS_P1;PMS_P2;Temp;Humidity;BMP_temperature;BMP_pressure;BME280_temperature;BME280_humidity;BME280_pressure;Samples;Min_cycle;Max_cycle;Signal;HPM_P1;HPM_P2
2021/06/13 00:23:38;;;;;;;11.57;6.90;;;19.70;77.10;;;;;;4838014;29;20283;-84
2021/06/13 00:30:15;;;;;;;11.57;6.80;;;19.70;76.90;;;;;;5020320;28;20246;-83
2021/06/13 00:34:14;;;;;;;13.57;7.28;;;19.70;76.70;;;;;;5034722;28;20194;-83
2021/06/13 00:40:24;;;;;;;12.05;6.25;;;19.60;77.30;;;;;;5008345;28;20270;-81
2021/06/13 00:42:50;;;;;;;14.43;6.85;;;19.70;76.70;;;;;;5036675;28;20204;-81
2021/06/13 00:45:16;;;;;;;14.90;6.53;;;19.60;76.60;;;;;;5036476;28;20173;-80
2021/06/13 00:47:43;;;;;;;10.70;5.30;;;19.70;76.30;;;;;;5036575;28;20424;-81
2021/06/13 00:51:00;;;;;;;13.38;7.45;;;19.70;76.30;;;;;;5044867;28;20436;-83
2021/06/13 01:07:54;;;;;;;10.75;6.50;;;19.70;75.20;;;;;;5036573;28;20170;-81
2021/06/13 01:14:51;;;;;;;11.63;6.55;;;19.80;73.70;;;;;;5017210;28;20167;-84
2021/06/13 03:26:30;;;;;;;13.25;6.38;;;19.10;74.20;;;;;;5040859;28;20192;-81
2021/06/13 03:28:57;;;;;;;11.18;6.13;;;19.10;74.60;;;;;;5040132;28;20182;-82
2021/06/13 03:31:24;;;;;;;12.93;7.70;;;19.10;74.60;;;;;;5038917;28;20166;-82
2021/06/13 03:33:52;;;;;;;15.30;6.13;;;19.00;74.60;;;;;;5038951;28;20192;-82
2021/06/13 03:36:19;;;;;;;11.13;5.60;;;19.00;72.60;;;;;;5038890;28;20177;-81
2021/06/13 03:38:47;;;;;;;10.90;5.10;;;18.90;74.20;;;;;;5038816;28;20174;-82
2021/06/13 03:41:14;;;;;;;7.55;4.80;;;19.00;74.90;;;;;;5038000;28;20172;-82
2021/06/13 03:43:41;;;;;;;13.52;6.32;;;19.00;73.70;;;;;;5038368;28;20173;-82
2021/06/13 03:46:08;;;;;;;11.02;5.65;;;18.90;73.80;;;;;;5112254;22;20630;-81
2021/06/13 03:48:35;;;;;;;11.48;5.88;;;18.90;74.10;;;;;;5041339;28;20176;-81
2021/06/13 03:51:03;;;;;;;9.40;5.57;;;18.90;74.80;;;;;;5039715;28;20269;-80
2021/06/13 03:53:29;;;;;;;9.55;5.75;;;18.90;74.60;;;;;;5039647;28;20233;-81
2021/06/13 03:56:01;;;;;;;15.63;5.70;;;18.90;74.80;;;;;;5041896;28;20173;-81
2021/06/13 03:58:27;;;;;;;13.95;6.30;;;18.90;74.40;;;;;;5039525;28;20157;-81
2021/06/13 04:00:55;;;;;;;15.60;5.63;;;18.80;74.80;;;;;;5037694;28;20194;-80
2021/06/13 04:03:23;;;;;;;15.38;5.43;;;18.90;74.60;;;;;;5039632;28;20673;-79
2021/06/13 04:05:50;;;;;;;9.65;6.28;;;18.80;74.50;;;;;;5038362;28;20174;-80
2021/06/13 04:08:16;;;;;;;11.68;5.43;;;18.80;74.80;;;;;;5038142;28;20634;-80
2021/06/13 04:10:47;;;;;;;11.30;6.07;;;18.80;74.50;;;;;;5037860;28;20169;-81
2021/06/13 04:13:15;;;;;;;11.45;5.53;;;18.80;74.40;;;;;;5038301;28;20217;-81
2021/06/13 04:15:42;;;;;;;17.83;5.80;;;18.80;74.60;;;;;;5038858;28;20174;-80
2021/06/13 04:18:09;;;;;;;12.38;6.25;;;18.70;74.40;;;;;;5038470;28;20174;-80
2021/06/13 04:20:36;;;;;;;14.27;5.53;;;18.70;74.90;;;;;;5040450;28;20193;-80
2021/06/13 04:23:04;;;;;;;7.47;4.60;;;18.70;75.20;;;;;;5037979;28;20201;-80
2021/06/13 04:25:30;;;;;;;8.57;4.13;;;18.70;75.20;;;;;;5038070;28;20166;-80
2021/06/13 04:27:57;;;;;;;12.68;5.70;;;18.70;74.90;;;;;;5037586;28;20642;-80
2021/06/13 04:30:24;;;;;;;10.63;4.40;;;18.70;74.90;;;;;;5039149;28;20661;-80
2021/06/13 04:32:51;;;;;;;11.73;5.57;;;18.70;74.60;;;;;;5039190;28;20243;-81
2021/06/13 04:35:17;;;;;;;11.13;4.93;;;18.70;74.60;;;;;;5038772;28;20257;-80
2021/06/13 04:37:43;;;;;;;9.23;5.03;;;18.60;74.90;;;;;;5038065;28;20268;-80
2021/06/13 04:40:10;;;;;;;13.23;5.50;;;18.60;74.90;;;;;;5037712;28;20221;-80
2021/06/13 04:42:36;;;;;;;10.07;5.40;;;18.50;74.80;;;;;;5038184;28;20654;-80
2021/06/13 04:45:08;;;;;;;8.30;4.40;;;18.50;75.10;;;;;;5038735;28;20170;-80
2021/06/13 04:47:34;;;;;;;8.57;5.10;;;18.50;75.10;;;;;;5038348;28;20170;-80
2021/06/13 04:50:02;;;;;;;16.95;5.50;;;18.50;75.10;;;;;;5038771;28;20174;-80
2021/06/13 04:52:28;;;;;;;17.08;5.47;;;18.50;75.20;;;;;;5036858;28;20197;-80
2021/06/13 04:55:14;;;;;;;12.43;5.63;;;18.60;75.80;;;;;;5036975;28;20177;-80
2021/06/13 04:57:59;;;;;;;13.27;4.82;;;18.60;74.80;;;;;;5037878;28;20192;-81
2021/06/13 05:00:25;;;;;;;12.07;6.10;;;18.70;74.60;;;;;;5036693;28;20206;-80
2021/06/13 05:02:50;;;;;;;11.97;6.03;;;18.60;74.90;;;;;;5036705;28;20197;-80
2021/06/13 05:05:16;;;;;;;9.93;5.40;;;18.60;74.50;;;;;;5037278;28;20831;-80
2021/06/13 05:07:42;;;;;;;19.77;6.38;;;18.60;74.10;;;;;;5038086;28;20170;-81
2021/06/13 05:10:09;;;;;;;17.55;6.05;;;18.60;74.40;;;;;;5037332;28;20231;-81
2021/06/13 05:12:54;;;;;;;9.50;4.80;;;18.50;74.40;;;;;;5036785;28;20281;-80
2021/06/13 05:15:21;;;;;;;22.48;5.20;;;18.50;74.60;;;;;;5036989;28;20162;-80
2021/06/13 05:17:48;;;;;;;10.07;4.70;;;18.50;74.80;;;;;;5037475;28;20170;-81
2021/06/13 05:20:14;;;;;;;9.75;4.85;;;18.50;73.90;;;;;;5036216;28;20209;-80
2021/06/13 05:22:58;;;;;;;11.68;4.90;;;18.50;74.20;;;;;;5036565;28;20190;-81
2021/06/13 05:25:27;;;;;;;7.72;4.40;;;18.50;72.80;;;;;;5037608;28;20169;-80
2021/06/13 05:27:53;;;;;;;7.47;4.90;;;18.50;73.80;;;;;;5036726;28;20177;-80
2021/06/13 05:30:19;;;;;;;12.93;5.10;;;18.50;74.10;;;;;;5036482;28;20170;-80
2021/06/13 05:32:45;;;;;;;6.32;4.32;;;18.60;73.50;;;;;;5035834;28;20204;-80
2021/06/13 05:35:11;;;;;;;7.97;5.53;;;18.60;73.70;;;;;;5036177;28;20170;-80
2021/06/13 05:37:37;;;;;;;14.52;4.90;;;18.70;73.80;;;;;;5036925;28;20478;-81
2021/06/13 05:40:09;;;;;;;9.70;4.77;;;18.70;73.30;;;;;;5036379;28;20201;-81
2021/06/13 05:42:36;;;;;;;11.10;4.15;;;18.70;72.70;;;;;;5035938;28;20190;-81
2021/06/13 05:45:04;;;;;;;11.60;4.43;;;18.80;72.70;;;;;;5035271;28;20661;-80
2021/06/13 05:47:30;;;;;;;9.13;5.45;;;18.90;72.40;;;;;;5035890;28;20214;-80
2021/06/13 05:49:55;;;;;;;12.33;5.73;;;18.90;72.40;;;;;;5036073;28;20201;-80
2021/06/13 05:52:21;;;;;;;9.53;5.03;;;18.90;72.60;;;;;;5036994;28;20443;-80
2021/06/13 05:54:47;;;;;;;10.10;5.00;;;19.00;73.00;;;;;;5036143;28;20425;-80
2021/06/13 05:57:13;;;;;;;13.57;4.50;;;19.00;72.80;;;;;;5036064;28;20409;-81
2021/06/13 05:59:38;;;;;;;14.90;5.67;;;19.10;72.40;;;;;;5035344;28;20209;-81
2021/06/13 06:02:04;;;;;;;8.30;4.60;;;19.20;72.10;;;;;;5035363;28;20193;-80
2021/06/13 06:04:30;;;;;;;30.17;5.10;;;19.20;72.10;;;;;;5034180;28;20412;-80
2021/06/13 06:06:58;;;;;;;9.27;5.07;;;19.20;71.40;;;;;;5035406;28;20174;-81
2021/06/13 06:09:24;;;;;;;7.60;4.82;;;19.30;71.90;;;;;;5035729;28;20208;-81
2021/06/13 06:11:49;;;;;;;13.63;4.10;;;19.30;70.50;;;;;;5036045;28;20201;-80
2021/06/13 06:14:15;;;;;;;12.63;4.10;;;19.40;69.90;;;;;;5036233;28;20184;-82
2021/06/13 06:16:41;;;;;;;13.47;4.50;;;19.40;69.90;;;;;;5037396;28;20194;-81
2021/06/13 06:19:07;;;;;;;9.37;4.43;;;19.40;69.90;;;;;;5035896;28;20223;-81
2021/06/13 06:21:32;;;;;;;8.13;4.50;;;19.50;69.50;;;;;;5035279;28;20523;-81
2021/06/13 06:23:58;;;;;;;12.77;4.27;;;19.60;69.40;;;;;;5037559;28;20626;-81
2021/06/13 06:26:24;;;;;;;13.43;5.40;;;19.60;68.50;;;;;;5041955;28;20543;-81
2021/06/13 06:28:49;;;;;;;6.07;4.33;;;19.60;69.10;;;;;;5042103;28;20642;-81
2021/06/13 06:31:15;;;;;;;9.73;4.63;;;19.60;68.70;;;;;;5043098;28;20547;-82
2021/06/13 06:33:41;;;;;;;9.73;3.83;;;19.70;69.20;;;;;;5044649;28;20487;-82
2021/06/13 06:36:07;;;;;;;11.97;4.37;;;19.70;68.40;;;;;;5045819;28;20405;-82
2021/06/13 06:38:33;;;;;;;11.63;4.30;;;19.80;68.80;;;;;;5044493;28;20404;-82
2021/06/13 06:40:59;;;;;;;6.57;4.22;;;19.90;68.80;;;;;;5046392;28;20467;-82
2021/06/13 06:43:26;;;;;;;7.80;4.47;;;20.00;67.40;;;;;;5045445;28;20185;-82
2021/06/13 06:45:51;;;;;;;11.40;4.88;;;20.10;67.00;;;;;;5044428;28;20529;-82
2021/06/13 06:48:17;;;;;;;12.80;4.53;;;20.10;67.70;;;;;;5045993;28;20204;-82
2021/06/13 06:50:44;;;;;;;9.70;5.03;;;20.30;66.40;;;;;;5044771;28;20423;-83
2021/06/13 06:53:10;;;;;;;10.57;4.35;;;20.30;65.80;;;;;;5045888;28;20428;-82
2021/06/13 06:55:36;;;;;;;14.48;5.72;;;20.10;67.60;;;;;;5044793;28;20322;-82
2021/06/13 06:58:03;;;;;;;8.82;4.13;;;20.20;66.60;;;;;;5043555;28;20184;-85
2021/06/13 07:00:28;;;;;;;8.48;3.88;;;20.30;66.30;;;;;;5044354;28;20292;-85
2021/06/13 07:02:54;;;;;;;8.80;5.30;;;20.40;66.30;;;;;;5043466;28;20236;-84
2021/06/13 07:05:20;;;;;;;15.10;5.10;;;20.40;65.80;;;;;;5043740;28;20169;-84
2021/06/13 07:07:46;;;;;;;9.30;4.88;;;20.60;65.80;;;;;;5043488;28;20173;-85
2021/06/13 07:10:13;;;;;;;12.93;4.60;;;20.70;65.80;;;;;;5044590;28;20587;-84
2021/06/13 07:12:39;;;;;;;8.48;4.57;;;20.80;65.80;;;;;;5044928;28;20428;-84
2021/06/13 07:15:07;;;;;;;12.07;5.28;;;20.90;65.90;;;;;;5043671;28;20673;-85
2021/06/13 07:17:34;;;;;;;7.78;4.20;;;20.80;65.80;;;;;;5042767;28;20180;-84
2021/06/13 07:19:59;;;;;;;9.50;4.47;;;20.70;65.90;;;;;;5042494;28;20212;-85
2021/06/13 07:22:25;;;;;;;9.77;4.87;;;20.90;66.40;;;;;;5042932;28;20202;-84
2021/06/13 07:24:56;;;;;;;9.80;3.90;;;20.90;65.80;;;;;;5043246;28;20246;-84
2021/06/13 07:27:22;;;;;;;7.47;3.55;;;20.90;62.40;;;;;;5043823;28;20487;-84
2021/06/13 07:29:48;;;;;;;18.23;6.33;;;20.70;63.50;;;;;;5043617;28;20209;-84
2021/06/13 07:32:16;;;;;;;8.75;4.28;;;20.80;65.20;;;;;;5043063;28;20766;-84
2021/06/13 07:34:42;;;;;;;7.18;4.38;;;20.90;65.10;;;;;;5043758;28;20174;-85
2021/06/13 07:37:09;;;;;;;11.43;4.20;;;21.10;64.10;;;;;;5040266;28;20181;-85
2021/06/13 07:39:34;;;;;;;13.45;4.45;;;21.10;64.80;;;;;;5039929;28;20543;-84
2021/06/13 07:42:01;;;;;;;8.83;3.87;;;21.20;62.70;;;;;;5039779;28;20246;-83
2021/06/13 07:44:28;;;;;;;9.82;4.13;;;21.20;62.00;;;;;;5039067;28;20169;-83
2021/06/13 07:46:56;;;;;;;7.25;4.70;;;21.30;62.10;;;;;;5039002;28;20193;-84
2021/06/13 07:49:22;;;;;;;9.63;4.28;;;21.30;63.50;;;;;;5039439;28;20538;-83
2021/06/13 07:51:48;;;;;;;13.03;4.50;;;21.40;63.50;;;;;;5038856;28;20220;-84
2021/06/13 07:54:14;;;;;;;7.32;4.95;;;21.70;62.80;;;;;;5039605;28;20482;-84
2021/06/13 07:56:40;;;;;;;11.32;4.75;;;21.90;62.00;;;;;;5040016;28;20184;-84
2021/06/13 07:59:06;;;;;;;7.20;4.57;;;22.00;61.90;;;;;;5039220;28;20177;-84
2021/06/13 08:01:32;;;;;;;10.17;4.53;;;22.00;62.10;;;;;;5038918;28;20680;-83
2021/06/13 08:03:58;;;;;;;14.83;5.20;;;21.90;61.90;;;;;;5038343;28;20504;-83
2021/06/13 08:06:24;;;;;;;7.03;4.50;;;22.10;62.10;;;;;;5039210;28;20718;-84
2021/06/13 08:08:50;;;;;;;7.03;4.40;;;22.40;60.50;;;;;;5039417;28;20170;-85
2021/06/13 08:11:16;;;;;;;14.70;4.90;;;22.20;60.20;;;;;;5038642;28;20445;-86
2021/06/13 08:13:41;;;;;;;8.83;4.70;;;21.90;61.20;;;;;;5040200;28;20419;-84
2021/06/13 08:16:07;;;;;;;7.83;4.03;;;22.00;61.30;;;;;;5039787;28;20252;-85
2021/06/13 08:18:33;;;;;;;8.75;5.28;;;22.10;61.30;;;;;;5038842;28;20169;-85
2021/06/13 08:20:59;;;;;;;18.00;9.00;;;22.30;61.20;;;;;;5038036;28;20616;-85
2021/06/13 08:23:25;;;;;;;8.80;4.72;;;22.40;61.00;;;;;;5039411;28;20516;-84
2021/06/13 08:25:52;;;;;;;13.48;5.65;;;22.50;60.80;;;;;;5037874;28;20184;-85
2021/06/13 08:28:18;;;;;;;10.23;4.75;;;22.60;58.80;;;;;;5038026;28;20174;-84
2021/06/13 08:30:45;;;;;;;17.80;6.80;;;22.40;58.90;;;;;;5038242;28;20200;-84
2021/06/13 08:33:12;;;;;;;7.78;3.95;;;22.10;60.00;;;;;;5037353;28;20737;-83
2021/06/13 08:35:38;;;;;;;9.63;4.95;;;22.30;60.50;;;;;;5037841;28;20602;-84
2021/06/13 08:38:05;;;;;;;7.60;4.80;;;22.40;60.80;;;;;;5037068;28;20173;-84
2021/06/13 08:40:31;;;;;;;9.82;4.65;;;22.70;59.70;;;;;;5037368;28;20459;-83
2021/06/13 08:42:57;;;;;;;8.88;5.03;;;22.90;59.10;;;;;;5038270;28;20214;-83
2021/06/13 08:45:24;;;;;;;10.93;4.47;;;23.00;59.10;;;;;;5037886;28;20185;-84
2021/06/13 08:47:57;;;;;;;11.10;4.85;;;23.20;58.10;;;;;;5042636;28;20162;-83
2021/06/13 08:50:24;;;;;;;9.15;5.32;;;23.10;58.40;;;;;;5038324;28;20518;-84
2021/06/13 08:52:51;;;;;;;9.30;4.97;;;23.00;58.10;;;;;;5039018;28;20605;-83
2021/06/13 08:55:21;;;;;;;8.32;4.35;;;23.20;58.40;;;;;;5037785;28;20170;-84
2021/06/13 08:57:49;;;;;;;7.47;4.85;;;23.40;57.10;;;;;;5037844;28;20170;-84
2021/06/13 09:00:18;;;;;;;11.27;5.25;;;23.40;57.10;;;;;;5037303;28;20552;-84
2021/06/13 09:02:44;;;;;;;6.47;4.60;;;23.60;56.80;;;;;;5037170;28;20194;-84
2021/06/13 09:05:12;;;;;;;16.73;5.97;;;23.50;57.40;;;;;;5037847;28;20261;-83
2021/06/13 09:07:48;;;;;;;8.85;4.68;;;23.50;56.80;;;;;;5037798;28;20413;-83
2021/06/13 09:10:18;;;;;;;18.67;5.00;;;23.50;57.90;;;;;;5035958;28;20178;-84
2021/06/13 09:12:43;;;;;;;7.20;4.32;;;23.40;57.10;;;;;;5037010;28;20198;-84
2021/06/13 09:15:09;;;;;;;7.47;5.00;;;23.30;57.70;;;;;;5036567;28;20541;-84
2021/06/13 09:17:42;;;;;;;10.95;3.90;;;23.50;56.70;;;;;;5035988;28;20177;-84
2021/06/13 09:20:23;;;;;;;11.45;4.35;;;23.70;57.10;;;;;;5035885;28;20682;-84
2021/06/13 09:23:13;;;;;;;9.27;5.03;;;24.00;56.40;;;;;;5035945;28;20276;-83
2021/06/13 09:25:42;;;;;;;8.90;4.95;;;24.40;55.80;;;;;;5028947;28;20178;-84
2021/06/13 09:28:14;;;;;;;8.65;4.65;;;24.50;55.70;;;;;;5036444;28;20166;-84
2021/06/13 09:30:43;;;;;;;8.15;4.40;;;24.50;53.80;;;;;;5037812;28;20673;-84
2021/06/13 09:33:13;;;;;;;12.52;4.65;;;24.10;54.20;;;;;;5035973;28;20198;-84
2021/06/13 09:35:40;;;;;;;14.93;5.03;;;24.10;55.90;;;;;;5036142;28;20170;-83
2021/06/13 09:38:07;;;;;;;9.23;4.63;;;24.20;54.30;;;;;;5036324;28;20178;-83
2021/06/13 09:40:33;;;;;;;9.02;5.70;;;24.30;55.00;;;;;;5035728;28;20197;-84
2021/06/13 09:43:22;;;;;;;6.85;4.72;;;24.40;54.10;;;;;;5037031;28;20281;-83
2021/06/13 09:45:51;;;;;;;9.23;5.20;;;24.60;53.80;;;;;;5109501;22;20598;-78
2021/06/13 09:48:17;;;;;;;10.10;6.32;;;24.80;53.80;;;;;;5055018;28;20197;-80
2021/06/13 09:50:50;;;;;;;38.65;19.17;;;24.90;53.90;;;;;;5054662;28;20177;-81
2021/06/13 09:53:37;;;;;;;11.75;4.28;;;24.80;52.20;;;;;;5054896;28;20254;-79
2021/06/13 09:56:10;;;;;;;6.30;3.75;;;24.80;53.40;;;;;;5054746;28;20739;-80
2021/06/13 09:58:46;;;;;;;7.60;5.57;;;24.80;52.20;;;;;;5054171;28;20184;-80
2021/06/13 10:01:12;;;;;;;13.75;6.30;;;24.80;52.40;;;;;;5055116;28;20201;-80
2021/06/13 10:03:40;;;;;;;8.75;4.15;;;24.90;51.60;;;;;;5055022;28;20255;-80
2021/06/13 10:06:08;;;;;;;13.15;8.30;;;25.20;50.70;;;;;;5054671;28;20209;-79
2021/06/13 10:08:36;;;;;;;7.97;4.85;;;25.10;50.90;;;;;;5054658;28;20231;-80
2021/06/13 10:11:06;;;;;;;7.43;4.40;;;25.20;51.20;;;;;;5054463;28;20177;-79
2021/06/13 10:13:54;;;;;;;10.00;3.70;;;25.10;49.20;;;;;;5054442;28;20258;-79
2021/06/13 10:16:31;;;;;;;43.33;23.55;;;24.70;48.30;;;;;;5054497;28;20649;-80
2021/06/13 10:19:06;;;;;;;8.82;3.55;;;24.50;49.50;;;;;;5054388;28;20298;-80
2021/06/13 10:21:39;;;;;;;9.15;3.92;;;24.40;51.30;;;;;;5053616;28;20200;-80
2021/06/13 10:24:14;;;;;;;7.10;4.03;;;24.60;49.00;;;;;;5053670;28;20248;-81
2021/06/13 10:27:05;;;;;;;6.97;3.10;;;24.90;46.30;;;;;;5053785;28;20169;-80
2021/06/13 10:29:35;;;;;;;12.07;3.50;;;25.00;46.60;;;;;;5054377;28;20244;-80
2021/06/13 10:32:05;;;;;;;11.40;3.97;;;25.30;47.50;;;;;;5054102;28;20223;-81
2021/06/13 10:34:32;;;;;;;9.63;3.30;;;25.40;46.10;;;;;;5053684;28;20180;-80
2021/06/13 10:37:00;;;;;;;6.03;3.65;;;25.50;47.10;;;;;;5052782;28;20173;-80
2021/06/13 10:39:28;;;;;;;7.53;3.80;;;25.60;47.10;;;;;;5053116;28;20232;-80
2021/06/13 10:41:55;;;;;;;7.60;3.85;;;25.60;47.70;;;;;;5053497;28;20264;-79
2021/06/13 10:44:24;;;;;;;9.23;3.08;;;25.60;47.00;;;;;;5053760;28;20527;-80
2021/06/13 10:46:52;;;;;;;4.18;3.30;;;25.70;46.30;;;;;;5053026;28;20563;-80
2021/06/13 10:49:42;;;;;;;6.90;3.28;;;25.70;45.40;;;;;;5053182;28;20173;-80
2021/06/13 10:52:20;;;;;;;10.88;3.05;;;25.80;45.60;;;;;;5053858;28;20193;-80
2021/06/13 10:54:52;;;;;;;9.75;4.00;;;25.90;46.20;;;;;;5053455;28;20181;-79
2021/06/13 10:57:18;;;;;;;7.20;4.00;;;26.10;46.70;;;;;;5053907;28;20173;-80
2021/06/13 11:00:03;;;;;;;6.80;3.70;;;26.20;46.10;;;;;;5052763;28;20614;-80
2021/06/13 11:02:38;;;;;;;8.77;3.15;;;26.20;46.60;;;;;;5053033;28;20212;-77
2021/06/13 11:05:07;;;;;;;7.75;3.47;;;26.20;43.60;;;;;;5052218;28;20173;-78
2021/06/13 11:07:37;;;;;;;5.13;2.63;;;26.20;43.30;;;;;;5052539;28;20165;-77
2021/06/13 11:10:07;;;;;;;6.43;2.88;;;26.10;43.60;;;;;;5052374;28;20180;-77
2021/06/13 11:12:49;;;;;;;8.13;2.55;;;26.00;42.60;;;;;;5055655;28;20808;-79
2021/06/13 11:15:36;;;;;;;6.75;3.03;;;26.10;43.90;;;;;;5056521;28;20629;-78
2021/06/13 11:18:15;;;;;;;5.38;2.65;;;26.10;43.70;;;;;;5056769;28;20648;-79
2021/06/13 11:23:21;;;;;;;6.30;3.20;;;26.40;41.10;;;;;;5058795;28;20185;-77
2021/06/13 11:25:47;;;;;;;3.58;2.80;;;26.70;42.40;;;;;;5058353;28;20156;-79
2021/06/13 11:28:22;;;;;;;8.30;3.20;;;27.00;43.90;;;;;;5058351;28;20169;-80
2021/06/13 11:30:52;;;;;;;6.22;3.30;;;27.00;42.30;;;;;;5057323;28;20415;-80
2021/06/13 11:33:40;;;;;;;5.32;3.40;;;27.20;42.20;;;;;;5056384;28;20197;-80
2021/06/13 11:36:31;;;;;;;6.13;3.58;;;27.20;42.80;;;;;;5056561;28;20176;-81
2021/06/13 11:39:03;;;;;;;12.25;3.90;;;27.10;44.40;;;;;;5058255;28;20693;-80
2021/06/13 11:41:39;;;;;;;8.30;4.40;;;26.70;45.40;;;;;;5056887;28;20184;-80
2021/06/13 11:44:08;;;;;;;5.60;3.25;;;26.30;46.50;;;;;;5056444;28;20164;-83
2021/06/13 11:46:38;;;;;;;4.95;3.88;;;26.40;46.70;;;;;;5055348;28;20193;-82
2021/06/13 11:49:06;;;;;;;8.13;3.85;;;26.80;45.00;;;;;;5055125;28;20645;-83
2021/06/13 11:51:50;;;;;;;7.35;4.45;;;26.80;44.80;;;;;;5055082;28;20189;-83
2021/06/13 11:54:32;;;;;;;12.18;3.85;;;26.80;44.90;;;;;;5055735;28;20215;-81
2021/06/13 11:57:02;;;;;;;6.53;3.85;;;26.50;46.00;;;;;;5055785;28;20180;-81
2021/06/13 11:59:27;;;;;;;6.95;2.92;;;26.70;44.90;;;;;;5055202;28;20239;-81
2021/06/13 12:01:56;;;;;;;5.30;3.40;;;27.00;44.10;;;;;;5055437;28;20808;-81
2021/06/13 12:04:23;;;;;;;11.52;3.72;;;27.20;43.20;;;;;;5054912;28;20423;-80
2021/06/13 12:06:49;;;;;;;4.93;2.80;;;27.20;42.70;;;;;;5055532;28;20169;-81
2021/06/13 12:09:17;;;;;;;5.78;3.00;;;27.30;44.00;;;;;;5054848;28;20226;-80
2021/06/13 12:11:49;;;;;;;4.40;2.63;;;27.50;41.50;;;;;;5054567;28;20200;-79
2021/06/13 12:14:34;;;;;;;4.20;2.38;;;27.50;42.20;;;;;;5055022;28;20161;-81
2021/06/13 12:17:23;;;;;;;16.33;3.63;;;27.90;42.00;;;;;;5054312;28;20189;-81
2021/06/13 12:20:00;;;;;;;6.53;2.92;;;27.90;38.90;;;;;;5053949;28;20288;-82
2021/06/13 12:23:16;;;;;;;3.15;2.40;;;28.00;37.80;;;;;;5053575;28;20192;-82
2021/06/13 12:28:12;;;;;;;4.85;2.38;;;27.90;38.10;;;;;;5056074;28;20152;-79
2021/06/13 12:30:40;;;;;;;4.20;2.20;;;27.80;38.80;;;;;;5054979;28;20272;-81
2021/06/13 12:33:09;;;;;;;8.85;3.50;;;27.90;40.30;;;;;;5053930;28;20217;-81
2021/06/13 12:35:36;;;;;;;7.50;2.67;;;28.10;40.70;;;;;;5054074;28;20222;-81
2021/06/13 12:38:18;;;;;;;11.23;3.55;;;28.20;42.20;;;;;;5055339;28;20177;-82
2021/06/13 12:40:56;;;;;;;9.50;3.03;;;28.30;41.80;;;;;;5055341;28;20273;-80
2021/06/13 12:43:41;;;;;;;4.40;2.60;;;28.40;41.50;;;;;;5055764;28;20193;-80
2021/06/13 12:46:10;;;;;;;12.13;3.53;;;28.50;39.90;;;;;;5055225;28;20592;-80
2021/06/13 12:48:35;;;;;;;5.13;2.80;;;28.40;40.20;;;;;;5055755;28;20694;-80
2021/06/13 12:51:02;;;;;;;5.07;2.93;;;28.50;39.10;;;;;;5055825;28;20207;-80
2021/06/13 12:53:43;;;;;;;6.22;3.05;;;28.50;37.80;;;;;;5054878;28;20439;-81
2021/06/13 12:56:09;;;;;;;5.65;3.00;;;28.50;39.50;;;;;;5054961;28;20536;-81
2021/06/13 12:58:40;;;;;;;6.90;3.15;;;28.50;39.70;;;;;;5054864;28;20612;-81
2021/06/13 13:01:07;;;;;;;10.38;2.60;;;28.30;38.50;;;;;;5055018;28;20203;-81
2021/06/13 13:03:44;;;;;;;4.82;3.00;;;28.40;40.20;;;;;;5054673;28;20193;-81
2021/06/13 13:06:11;;;;;;;4.40;2.60;;;28.50;41.00;;;;;;5054081;28;20544;-81
2021/06/13 13:08:49;;;;;;;11.05;4.70;;;28.40;40.10;;;;;;5054691;28;20637;-81
2021/06/13 13:11:25;;;;;;;6.07;3.00;;;28.70;41.00;;;;;;5054535;28;20169;-80
2021/06/13 13:14:07;;;;;;;15.32;4.40;;;29.00;38.00;;;;;;5056130;28;20295;-80
2021/06/13 13:16:35;;;;;;;3.03;2.65;;;29.00;38.00;;;;;;5055026;28;20192;-81
2021/06/13 13:19:02;;;;;;;5.40;3.10;;;29.10;36.90;;;;;;5053893;28;20179;-82
2021/06/13 13:21:32;;;;;;;3.75;2.40;;;29.10;36.80;;;;;;5053792;28;20197;-81
2021/06/13 13:23:59;;;;;;;2.78;2.33;;;29.10;37.70;;;;;;5055569;28;20673;-81
2021/06/13 13:26:25;;;;;;;3.00;2.47;;;29.20;37.70;;;;;;5055352;28;20604;-81
2021/06/13 13:28:53;;;;;;;5.25;3.35;;;29.50;37.80;;;;;;5053863;28;20259;-81
2021/06/13 13:31:22;;;;;;;4.57;3.00;;;29.60;36.70;;;;;;5054294;28;20176;-81
2021/06/13 13:34:08;;;;;;;9.02;3.25;;;29.50;37.00;;;;;;5054519;28;20536;-81
2021/06/13 13:36:44;;;;;;;4.70;2.80;;;29.50;37.60;;;;;;5053739;28;20177;-81
2021/06/13 13:39:11;;;;;;;3.58;2.75;;;29.40;36.10;;;;;;5055867;28;20781;-80
2021/06/13 13:41:41;;;;;;;4.88;2.40;;;29.30;37.20;;;;;;5055473;28;20185;-79
2021/06/13 13:44:08;;;;;;;4.05;2.38;;;29.30;36.70;;;;;;5056158;28;20179;-80
2021/06/13 13:46:36;;;;;;;4.57;1.98;;;29.30;36.50;;;;;;5055859;28;20193;-79
2021/06/13 13:49:04;;;;;;;5.28;2.20;;;29.10;35.20;;;;;;5056471;28;20177;-80
2021/06/13 13:51:41;;;;;;;4.25;2.25;;;29.30;35.90;;;;;;5055389;28;20169;-79
2021/06/13 13:54:06;;;;;;;4.88;2.58;;;29.60;35.20;;;;;;5055789;28;20267;-80
2021/06/13 13:56:32;;;;;;;17.33;3.93;;;29.60;34.60;;;;;;5055658;28;20217;-80
2021/06/13 13:58:58;;;;;;;4.00;2.67;;;29.60;36.10;;;;;;5055861;28;20201;-81
2021/06/13 14:01:24;;;;;;;5.80;2.97;;;29.40;37.40;;;;;;5055244;28;20220;-81
2021/06/13 14:03:49;;;;;;;7.90;3.27;;;29.50;37.40;;;;;;5055059;28;20174;-80
2021/06/13 14:06:16;;;;;;;5.07;1.80;;;29.80;38.10;;;;;;5053578;28;20596;-80
2021/06/13 14:08:48;;;;;;;3.97;1.80;;;30.00;33.80;;;;;;5052562;28;20641;-81
2021/06/13 14:11:16;;;;;;;4.82;2.50;;;30.00;34.00;;;;;;5052615;28;20183;-82
2021/06/13 14:13:43;;;;;;;2.45;1.73;;;30.00;32.90;;;;;;5052695;28;20179;-82
2021/06/13 14:16:09;;;;;;;6.50;3.05;;;30.10;34.70;;;;;;5052414;28;20203;-81
2021/06/13 14:18:34;;;;;;;6.20;2.20;;;30.30;34.30;;;;;;5054500;28;20177;-80
2021/06/13 14:21:00;;;;;;;6.70;2.50;;;30.50;33.10;;;;;;5055254;28;20447;-80
2021/06/13 14:23:27;;;;;;;3.20;1.87;;;30.40;34.40;;;;;;5055385;28;20438;-81
2021/06/13 14:25:55;;;;;;;4.78;2.00;;;30.60;35.30;;;;;;5055093;28;20522;-81
2021/06/13 14:28:22;;;;;;;3.25;2.00;;;30.90;34.40;;;;;;5054766;28;20204;-81
2021/06/13 14:30:49;;;;;;;5.47;2.65;;;31.00;32.70;;;;;;5055670;28;20173;-80
2021/06/13 14:33:16;;;;;;;7.05;2.20;;;30.90;32.30;;;;;;5054143;28;20676;-80
2021/06/13 14:35:42;;;;;;;5.90;2.40;;;30.70;31.90;;;;;;5055708;28;20169;-81
2021/06/13 14:38:08;;;;;;;3.92;2.40;;;30.30;32.50;;;;;;5055893;28;20181;-80
2021/06/13 14:40:35;;;;;;;2.93;1.83;;;30.20;32.70;;;;;;5054097;28;20205;-80
2021/06/13 14:43:00;;;;;;;4.93;2.25;;;30.20;32.50;;;;;;5053753;28;20794;-81
2021/06/13 14:45:26;;;;;;;2.90;1.93;;;30.20;33.20;;;;;;5054369;28;20165;-81
2021/06/13 14:47:52;;;;;;;6.80;2.80;;;30.40;33.50;;;;;;5058128;28;20511;-81
2021/06/13 14:50:18;;;;;;;2.50;1.90;;;30.60;31.70;;;;;;5058224;28;20419;-81
2021/06/13 14:52:45;;;;;;;2.70;2.00;;;30.70;32.60;;;;;;5057996;28;20197;-81
2021/06/13 14:55:13;;;;;;;6.63;2.20;;;30.70;30.60;;;;;;5056936;28;20419;-81
2021/06/13 14:57:39;;;;;;;3.92;2.28;;;30.60;31.40;;;;;;5057894;28;20629;-81
2021/06/13 15:00:09;;;;;;;3.67;2.10;;;30.70;32.20;;;;;;5057835;28;20196;-82
2021/06/13 15:02:35;;;;;;;9.10;2.20;;;30.80;31.30;;;;;;5058195;28;20232;-83
2021/06/13 15:05:03;;;;;;;4.60;1.75;;;30.80;31.00;;;;;;5058584;28;20549;-83
2021/06/13 15:07:30;;;;;;;3.28;2.05;;;30.60;31.50;;;;;;5058284;28;20192;-83
2021/06/13 15:09:56;;;;;;;7.38;2.60;;;30.70;31.30;;;;;;5056171;28;20180;-84
2021/06/13 15:12:28;;;;;;;6.55;2.13;;;30.70;30.10;;;;;;5055568;28;20205;-83
2021/06/13 15:14:54;;;;;;;3.08;2.30;;;30.70;31.30;;;;;;5056101;28;20536;-82
2021/06/13 15:17:20;;;;;;;4.53;1.85;;;30.70;31.40;;;;;;5056098;28;20175;-83
2021/06/13 15:19:50;;;;;;;4.83;2.40;;;30.50;29.80;;;;;;5056912;28;20197;-82
2021/06/13 15:22:18;;;;;;;6.35;3.20;;;30.00;30.60;;;;;;5059001;28;20961;-82
2021/06/13 15:24:44;;;;;;;4.88;2.05;;;29.90;30.80;;;;;;5057849;28;20170;-82
2021/06/13 15:27:13;;;;;;;2.45;1.80;;;30.00;30.90;;;;;;5071840;28;20164;-83
2021/06/13 15:29:46;;;;;;;3.80;1.80;;;30.00;31.50;;;;;;5057642;28;20200;-83
2021/06/13 15:32:14;;;;;;;5.45;1.92;;;30.10;30.60;;;;;;5038101;28;20232;-83
2021/06/13 15:34:40;;;;;;;6.32;3.60;;;29.90;33.20;;;;;;5037053;28;20170;-83
2021/06/13 15:37:10;;;;;;;4.53;2.88;;;30.00;32.60;;;;;;5036220;28;20216;-82
2021/06/13 15:39:38;;;;;;;3.13;2.05;;;30.30;31.80;;;;;;5059732;28;20208;-83
2021/06/13 15:42:16;;;;;;;6.43;2.70;;;30.30;32.50;;;;;;5063158;28;20193;-83
2021/06/13 15:44:46;;;;;;;3.85;2.58;;;30.50;33.20;;;;;;5056687;28;20651;-82
2021/06/13 15:47:14;;;;;;;4.55;2.10;;;30.70;30.80;;;;;;5118385;22;20217;-83
2021/06/13 15:49:40;;;;;;;6.95;2.95;;;30.00;30.20;;;;;;5039020;28;20208;-83
2021/06/13 15:52:08;;;;;;;2.20;1.95;;;29.80;32.70;;;;;;5039213;28;20276;-82
2021/06/13 15:54:38;;;;;;;3.65;2.17;;;29.90;31.20;;;;;;5038203;28;20245;-84
2021/06/13 15:57:05;;;;;;;2.45;2.13;;;30.00;31.40;;;;;;5037569;28;20162;-84
2021/06/13 15:59:35;;;;;;;4.28;2.25;;;30.00;31.50;;;;;;5037684;28;20174;-85